Time;durP1;ratioP1;P1;durP2;ratioP2;P2;SDS_P1;SDS_P2;PMS_P1;PMS_P2;Temp;Humidity;BMP_temperature;BMP_pressure;BME280_temperature;BME280_humidity;BME280_pressure;Samples;Min_cycle;Max_cycle;Signal;HPM_P1;HPM_P2
2023/07/01 00:00:52;;;;;;;3.03;1.20;;;;;;;18.51;37.66;99811.47;20819996;28;20204;-80
2023/07/01 00:11:00;;;;;;;2.80;0.98;;;;;;;18.44;37.82;99789.47;20810386;28;20216;-80
2023/07/01 00:21:02;;;;;;;3.97;1.30;;;;;;;18.31;37.63;99779.59;20813295;28;20254;-80
2023/07/01 00:31:05;;;;;;;1.95;1.30;;;;;;;18.48;37.16;99766.69;20810726;28;20282;-80
2023/07/01 00:41:07;;;;;;;1.85;1.17;;;;;;;18.82;37.11;99753.09;20792908;28;20224;-79
2023/07/01 00:51:10;;;;;;;3.38;1.60;;;;;;;18.48;37.35;99750.41;20839715;28;20561;-80
2023/07/01 01:01:15;;;;;;;1.00;0.90;;;;;;;18.24;38.05;99736.81;20786985;28;20251;-80
2023/07/01 01:11:18;;;;;;;4.00;1.20;;;;;;;18.01;39.29;99713.44;20760873;28;20220;-79
2023/07/01 01:21:21;;;;;;;5.00;1.35;;;;;;;18.21;38.67;99703.41;20777156;28;20196;-79
2023/07/01 01:31:24;;;;;;;2.05;1.20;;;;;;;17.96;38.88;99688.19;20787949;28;20224;-78
2023/07/01 01:41:33;;;;;;;2.00;1.08;;;;;;;18.34;38.90;99679.09;20785605;28;20263;-78
2023/07/01 01:51:37;;;;;;;1.45;1.13;;;;;;;17.72;39.93;99664.78;20773493;28;20228;-78
2023/07/01 02:01:40;;;;;;;4.00;1.17;;;;;;;17.58;40.19;99653.28;20785168;28;20219;-79
2023/07/01 02:11:43;;;;;;;2.42;1.33;;;;;;;17.65;40.50;99636.28;20793001;28;20294;-80
2023/07/01 02:21:47;;;;;;;2.72;1.25;;;;;;;18.05;40.47;99626.03;20770027;28;20263;-77
2023/07/01 02:31:49;;;;;;;3.42;1.10;;;;;;;17.89;40.40;99607.19;20762455;28;20228;-80
2023/07/01 02:41:53;;;;;;;2.10;1.02;;;;;;;17.78;40.72;99614.84;20798822;28;20201;-80
2023/07/01 02:51:56;;;;;;;2.95;1.48;;;;;;;17.43;41.13;99615.38;20766066;28;20212;-79
2023/07/01 03:01:59;;;;;;;2.10;0.90;;;;;;;17.69;40.66;99608.66;20797617;28;20819;-79
2023/07/01 03:12:02;;;;;;;2.20;1.05;;;;;;;17.60;40.95;99599.66;20760704;28;20228;-81
2023/07/01 03:22:05;;;;;;;2.83;1.27;;;;;;;17.87;40.74;99586.84;20817683;28;20604;-80
2023/07/01 03:32:08;;;;;;;1.85;1.10;;;;;;;17.63;41.68;99586.69;20776900;28;20303;-79
2023/07/01 03:42:10;;;;;;;4.20;1.13;;;;;;;17.99;40.38;99573.53;20782699;28;20192;-79
2023/07/01 03:52:13;;;;;;;3.20;0.93;;;;;;;17.59;40.94;99563.88;20757892;28;20664;-79
2023/07/01 04:02:15;;;;;;;2.30;1.10;;;;;;;18.03;40.15;99560.13;20769223;28;20197;-80
2023/07/01 04:12:18;;;;;;;3.35;1.10;;;;;;;17.92;40.55;99542.97;20757643;28;20271;-79
2023/07/01 04:22:21;;;;;;;3.55;1.52;;;;;;;17.92;40.11;99540.13;20805793;28;20262;-80
2023/07/01 04:32:23;;;;;;;3.33;1.42;;;;;;;17.92;40.32;99526.72;20771311;28;20255;-79
2023/07/01 04:42:26;;;;;;;5.63;1.50;;;;;;;18.32;39.86;99527.72;20791476;28;20473;-80
2023/07/01 04:52:29;;;;;;;4.18;1.13;;;;;;;18.42;40.00;99509.84;20818653;28;20229;-80
2023/07/01 05:02:32;;;;;;;3.35;1.20;;;;;;;18.68;39.63;99508.72;20819032;28;20227;-80
2023/07/01 05:12:35;;;;;;;3.78;1.02;;;;;;;18.17;40.62;99489.03;20801966;28;20290;-80
2023/07/01 05:22:37;;;;;;;2.85;1.20;;;;;;;18.37;40.57;99476.06;20795532;28;20193;-79
2023/07/01 05:32:40;;;;;;;1.35;1.00;;;;;;;17.85;41.37;99469.72;20791585;28;20516;-80
2023/07/01 05:42:43;;;;;;;1.80;1.10;;;;;;;18.34;40.57;99468.31;20760151;28;20197;-79
2023/07/01 05:52:46;;;;;;;2.83;1.33;;;;;;;18.22;41.08;99466.66;20783762;28;20275;-80
2023/07/01 06:02:48;;;;;;;2.42;1.23;;;;;;;18.47;40.33;99463.88;20783085;28;20192;-78
2023/07/01 06:12:51;;;;;;;4.28;1.75;;;;;;;18.29;41.27;99445.94;20782596;28;20568;-80
2023/07/01 06:22:53;;;;;;;4.53;1.42;;;;;;;18.62;41.06;99434.22;20783578;28;20204;-79
2023/07/01 06:32:56;;;;;;;3.10;1.60;;;;;;;18.14;41.59;99447.94;20760916;28;20229;-78
2023/07/01 06:42:58;;;;;;;2.20;1.40;;;;;;;18.31;41.91;99454.91;20778936;28;20196;-80
2023/07/01 06:53:01;;;;;;;5.35;2.20;;;;;;;17.79;47.25;99448.59;20752978;28;20224;-81
2023/07/01 07:03:04;;;;;;;2.75;1.50;;;;;;;17.24;50.88;99466.94;20815694;28;20234;-77
2023/07/01 07:13:09;;;;;;;3.50;2.00;;;;;;;17.70;53.59;99456.66;20795437;28;20238;-78
2023/07/01 07:23:11;;;;;;;3.90;2.10;;;;;;;17.00;56.47;99468.34;20765263;28;20216;-78
2023/07/01 07:33:14;;;;;;;4.87;1.90;;;;;;;17.33;55.44;99470.25;20757076;28;20241;-77
2023/07/01 07:43:16;;;;;;;3.78;2.05;;;;;;;18.05;53.37;99460.91;20703207;28;20221;-77
2023/07/01 07:53:19;;;;;;;3.50;1.98;;;;;;;17.96;52.66;99463.28;20747883;28;20201;-77
2023/07/01 08:03:22;;;;;;;3.00;2.03;;;;;;;17.13;55.75;99456.28;20681195;28;20541;-79
2023/07/01 08:13:25;;;;;;;2.22;1.27;;;;;;;16.77;56.62;99448.66;20701455;28;20205;-77
2023/07/01 08:23:27;;;;;;;1.98;1.38;;;;;;;18.17;53.76;99452.81;20712276;28;20259;-78
2023/07/01 08:33:32;;;;;;;1.80;1.15;;;;;;;17.50;54.16;99446.78;20740242;28;20492;-78
2023/07/01 08:43:34;;;;;;;2.35;1.30;;;;;;;18.18;53.67;99439.41;20779293;28;20675;-77
2023/07/01 08:53:37;;;;;;;2.88;1.35;;;;;;;17.53;55.39;99432.59;20748143;28;20258;-77
2023/07/01 09:03:41;;;;;;;2.08;1.00;;;;;;;18.27;55.33;99437.78;20772789;28;20655;-77
2023/07/01 09:13:44;;;;;;;2.58;1.00;;;;;;;18.06;55.46;99434.88;20737094;28;20553;-80
2023/07/01 09:23:46;;;;;;;2.58;1.30;;;;;;;18.58;54.71;99436.19;20764577;28;20711;-77
2023/07/01 09:34:03;;;;;;;2.88;1.40;;;;;;;18.63;56.71;99435.84;20773976;28;20232;-78
2023/07/01 09:44:18;;;;;;;1.67;1.27;;;;;;;17.65;57.42;99422.09;20765577;28;20216;-77
2023/07/01 09:54:29;;;;;;;0.68;0.63;;;;;;;18.19;58.37;99421.88;20784812;28;20192;-78
2023/07/01 10:04:32;;;;;;;1.85;0.90;;;;;;;17.67;58.98;99411.13;20791796;28;20235;-75
2023/07/01 10:14:35;;;;;;;0.60;0.60;;;;;;;17.73;59.88;99404.63;20774842;28;20230;-77
2023/07/01 10:24:39;;;;;;;0.80;0.80;;;;;;;17.77;61.49;99399.78;20739631;28;20217;-78
2023/07/01 10:34:54;;;;;;;1.60;0.90;;;;;;;17.84;61.96;99399.78;20783804;28;20251;-79
2023/07/01 10:45:12;;;;;;;0.77;0.77;;;;;;;17.85;62.02;99387.19;20770331;28;20235;-77
2023/07/01 10:55:44;;;;;;;1.17;0.90;;;;;;;18.30;62.37;99390.59;20810935;28;20188;-78
2023/07/01 11:06:05;;;;;;;0.50;0.50;;;;;;;18.16;62.65;99379.19;20756273;28;20513;-78
2023/07/01 11:16:11;;;;;;;2.03;0.50;;;;;;;18.43;61.56;99371.91;20720542;28;20197;-78
2023/07/01 11:26:36;;;;;;;1.75;0.35;;;;;;;18.16;63.39;99373.50;20766473;28;20224;-79
2023/07/01 11:36:43;;;;;;;0.95;0.40;;;;;;;18.81;62.95;99372.34;20789148;28;20221;-78
2023/07/01 11:46:47;;;;;;;0.20;0.20;;;;;;;18.86;64.13;99377.59;20778025;28;20487;-79
2023/07/01 11:57:07;;;;;;;0.40;0.40;;;;;;;18.11;69.32;99373.88;20771296;28;20779;-78
2023/07/01 12:07:17;;;;;;;0.30;0.30;;;;;;;18.19;70.66;99382.03;20783610;28;20220;-79
2023/07/01 12:17:30;;;;;;;0.20;0.20;;;;;;;18.01;70.10;99377.53;20791370;28;20197;-78
2023/07/01 12:27:33;;;;;;;0.38;0.38;;;;;;;18.11;71.02;99386.09;20796347;28;20267;-78
2023/07/01 12:37:39;;;;;;;0.30;0.22;;;;;;;17.52;73.32;99387.47;20779626;28;20258;-78
2023/07/01 12:47:43;;;;;;;0.35;0.30;;;;;;;17.92;71.72;99378.69;20776177;28;20243;-80
2023/07/01 12:57:45;;;;;;;0.40;0.40;;;;;;;17.84;72.17;99371.34;20745704;28;20242;-81
2023/07/01 13:07:48;;;;;;;0.73;0.60;;;;;;;17.35;74.38;99371.13;20788277;28;20221;-82
2023/07/01 13:17:51;;;;;;;0.95;0.85;;;;;;;18.56;69.23;99361.72;20760090;28;20536;-80
2023/07/01 13:27:56;;;;;;;0.90;0.90;;;;;;;18.30;70.29;99362.13;20772528;28;20294;-79
2023/07/01 13:38:04;;;;;;;0.88;0.88;;;;;;;18.28;70.15;99356.84;20749189;28;20750;-79
2023/07/01 13:48:07;;;;;;;0.80;0.60;;;;;;;18.94;68.87;99345.03;20765253;28;20221;-79
2023/07/01 13:58:09;;;;;;;0.68;0.60;;;;;;;19.63;65.83;99338.72;20752214;28;20189;-79
2023/07/01 14:08:13;;;;;;;1.13;0.90;;;;;;;19.10;66.18;99325.44;20799019;28;20831;-78
2023/07/01 14:18:27;;;;;;;1.58;0.90;;;;;;;19.77;63.55;99315.81;20770325;28;20193;-77
2023/07/01 14:28:29;;;;;;;1.77;1.00;;;;;;;19.74;60.97;99298.72;20759359;28;20224;-77
2023/07/01 14:38:39;;;;;;;1.33;0.73;;;;;;;20.43;58.62;99290.06;20779112;28;20278;-79
2023/07/01 14:48:46;;;;;;;1.10;0.60;;;;;;;21.19;56.08;99305.28;20790818;28;20313;-79
2023/07/01 14:58:49;;;;;;;0.65;0.65;;;;;;;20.67;57.38;99300.50;20786516;28;20232;-78
2023/07/01 15:08:53;;;;;;;1.15;0.57;;;;;;;21.36;54.92;99279.31;20773911;28;20220;-77
2023/07/01 15:18:55;;;;;;;0.55;0.52;;;;;;;21.71;53.72;99275.16;20808979;28;20197;-78
2023/07/01 15:28:58;;;;;;;2.92;1.05;;;;;;;20.22;58.45;99287.41;20775502;28;20712;-82
2023/07/01 15:39:01;;;;;;;2.50;1.98;;;;;;;20.85;57.24;99276.63;20734834;28;20228;-85
2023/07/01 15:49:03;;;;;;;2.83;0.82;;;;;;;21.20;56.12;99281.97;20773305;28;20227;-80
2023/07/01 15:59:06;;;;;;;4.95;1.40;;;;;;;19.57;66.95;99334.69;20748844;28;20196;-82
2023/07/01 16:09:39;;;;;;;3.47;1.45;;;;;;;19.69;63.08;99332.19;20769877;28;20227;-82
2023/07/01 16:19:43;;;;;;;1.50;1.40;;;;;;;20.15;61.79;99327.44;20776602;28;20247;-82
2023/07/01 16:29:46;;;;;;;2.00;1.50;;;;;;;19.98;61.26;99350.00;20787071;28;20282;-82
2023/07/01 16:39:50;;;;;;;1.58;1.15;;;;;;;19.97;56.98;99342.66;20791012;28;20703;-79
2023/07/01 16:50:00;;;;;;;2.95;1.05;;;;;;;20.86;54.64;99346.91;20757361;28;20221;-83
2023/07/01 17:00:08;;;;;;;1.30;1.20;;;;;;;20.18;56.37;99352.31;20807700;28;20259;-79
2023/07/01 17:10:39;;;;;;;1.90;1.50;;;;;;;20.24;55.33;99365.75;20790490;28;20686;-82
2023/07/01 17:20:42;;;;;;;3.40;1.77;;;;;;;19.63;55.89;99372.97;20746808;28;20541;-84
2023/07/01 17:30:44;;;;;;;2.20;1.70;;;;;;;19.74;56.03;99390.88;20756188;28;20251;-82
2023/07/01 17:40:47;;;;;;;2.05;1.85;;;;;;;18.99;59.54;99401.63;20763845;28;20255;-81
2023/07/01 17:50:49;;;;;;;1.45;1.30;;;;;;;19.45;57.55;99412.19;20756652;28;20536;-83
2023/07/01 18:00:52;;;;;;;3.88;1.90;;;;;;;19.31;57.69;99418.72;20762936;28;20291;-83
2023/07/01 18:10:54;;;;;;;1.75;1.40;;;;;;;19.59;57.63;99440.69;20791970;28;20275;-84
2023/07/01 18:20:56;;;;;;;2.40;1.60;;;;;;;19.89;55.69;99438.09;20773363;28;20481;-80
2023/07/01 18:30:59;;;;;;;2.42;1.38;;;;;;;19.33;56.84;99451.34;20767917;28;20213;-83
2023/07/01 18:41:02;;;;;;;1.45;1.35;;;;;;;19.21;58.72;99448.88;20808870;28;20244;-82
2023/07/01 18:51:06;;;;;;;1.92;1.80;;;;;;;19.15;60.67;99472.50;20749155;28;20221;-82
2023/07/01 19:01:08;;;;;;;3.00;1.92;;;;;;;19.26;59.89;99462.72;20786126;28;20204;-81
2023/07/01 19:11:13;;;;;;;5.63;2.30;;;;;;;19.08;60.43;99478.22;20760462;28;20879;-81
2023/07/01 19:21:17;;;;;;;2.20;1.77;;;;;;;18.86;61.57;99475.34;20752071;28;20258;-83
2023/07/01 19:31:19;;;;;;;2.53;2.15;;;;;;;19.05;62.35;99485.56;20774088;28;20250;-80
2023/07/01 19:41:22;;;;;;;2.92;2.00;;;;;;;19.08;60.27;99493.31;20786017;28;20286;-80
2023/07/01 19:51:25;;;;;;;3.45;2.15;;;;;;;19.19;60.26;99519.78;20774668;28;20227;-85
2023/07/01 20:01:27;;;;;;;2.50;2.30;;;;;;;18.65;62.00;99534.38;20766319;28;20929;-83
2023/07/01 20:11:30;;;;;;;2.38;2.17;;;;;;;19.10;58.42;99549.91;20794431;28;20224;-85
2023/07/01 20:21:32;;;;;;;1.75;1.60;;;;;;;19.48;57.12;99554.03;20788115;28;20559;-81
2023/07/01 20:31:35;;;;;;;2.05;1.58;;;;;;;19.10;58.46;99555.59;20783246;28;20719;-80
2023/07/01 20:41:37;;;;;;;2.83;1.30;;;;;;;18.66;59.13;99567.34;20768341;28;20228;-84
2023/07/01 20:51:41;;;;;;;1.48;1.38;;;;;;;18.64;59.36;99576.28;20774029;28;20282;-82
2023/07/01 21:01:44;;;;;;;3.70;1.88;;;;;;;18.80;59.88;99593.03;20770381;28;20192;-84
2023/07/01 21:11:47;;;;;;;3.28;2.50;;;;;;;17.84;63.39;99593.34;20803426;28;20267;-84
2023/07/01 21:21:50;;;;;;;2.58;2.38;;;;;;;17.28;64.11;99612.81;20765926;28;20526;-83
2023/07/01 21:31:54;;;;;;;2.22;2.08;;;;;;;18.22;60.43;99608.22;20773231;28;20695;-83
2023/07/01 21:41:56;;;;;;;3.42;3.10;;;;;;;17.85;61.00;99614.88;20767491;28;20262;-83
2023/07/01 21:52:01;;;;;;;3.13;2.65;;;;;;;17.10;63.55;99626.81;20804683;28;20224;-81
2023/07/01 22:02:05;;;;;;;4.35;2.72;;;;;;;17.90;60.66;99625.91;20787317;28;20242;-84
2023/07/01 22:12:08;;;;;;;2.55;2.35;;;;;;;18.03;60.49;99622.78;20802846;28;20220;-83
2023/07/01 22:22:10;;;;;;;5.10;2.67;;;;;;;17.89;60.73;99629.97;20786837;28;20188;-84
2023/07/01 22:32:13;;;;;;;3.53;2.28;;;;;;;18.13;58.97;99634.22;20785431;28;20216;-83
2023/07/01 22:42:15;;;;;;;3.92;2.10;;;;;;;18.04;60.15;99648.00;20761024;28;20196;-86
2023/07/01 22:52:18;;;;;;;3.28;2.45;;;;;;;18.29;59.04;99651.00;20752979;28;20310;-84
2023/07/01 23:02:20;;;;;;;3.70;2.70;;;;;;;17.66;61.24;99655.00;20774909;28;20250;-84
2023/07/01 23:12:23;;;;;;;2.65;1.90;;;;;;;17.92;60.58;99651.97;20782242;28;20229;-84
2023/07/01 23:22:27;;;;;;;2.35;2.22;;;;;;;17.68;61.06;99649.72;20807070;28;20537;-84
2023/07/01 23:32:30;;;;;;;3.10;2.58;;;;;;;17.05;62.93;99647.03;20828549;28;20224;-82
2023/07/01 23:42:35;;;;;;;2.75;2.50;;;;;;;17.60;61.20;99635.84;20749412;28;20197;-85
2023/07/01 23:52:38;;;;;;;4.70;2.80;;;;;;;17.38;61.92;99635.66;20798339;28;20224;-84
